createdAt,value
2024-04-30T00:01:10.469Z,11.2
2024-04-30T00:02:26.718Z,11.1
2024-04-30T00:03:42.967Z,13
2024-04-30T00:04:59.217Z,13.2
2024-04-30T00:06:15.466Z,10.9
2024-04-30T00:07:31.715Z,10.8
2024-04-30T00:08:47.964Z,12.9
2024-04-30T00:10:04.213Z,13.5
2024-04-30T00:11:20.462Z,11.2
2024-04-30T00:12:36.711Z,10.9
2024-04-30T00:13:52.960Z,12.6
2024-04-30T00:15:09.210Z,13.2
2024-04-30T00:16:24.475Z,10.8
2024-04-30T00:17:40.724Z,11.1
2024-04-30T00:18:56.973Z,10.6
2024-04-30T00:20:13.223Z,12
2024-04-30T00:21:29.471Z,12.7
2024-04-30T00:22:45.721Z,12.3
2024-04-30T00:24:01.970Z,12.7
2024-04-30T00:25:18.218Z,10.1
2024-04-30T00:26:34.467Z,10.5
2024-04-30T00:27:50.717Z,10.5
2024-04-30T00:29:06.966Z,11.8
2024-04-30T00:30:23.215Z,11.2
2024-04-30T00:31:39.464Z,11.3
2024-04-30T00:32:54.729Z,11.3
2024-04-30T00:34:10.978Z,11.1
2024-04-30T00:35:27.227Z,11.2
2024-04-30T00:36:43.476Z,11.2
2024-04-30T00:37:59.725Z,11.9
2024-04-30T00:39:15.974Z,11
2024-04-30T00:40:32.223Z,11.5
2024-04-30T00:41:48.472Z,11.5
2024-04-30T00:43:04.721Z,11
2024-04-30T00:44:20.970Z,10.9
2024-04-30T00:45:37.219Z,11.4
2024-04-30T00:46:53.468Z,11.5
2024-04-30T00:48:09.717Z,11.6
2024-04-30T00:49:24.982Z,11.5
2024-04-30T00:50:41.231Z,11.2
2024-04-30T00:51:57.480Z,11.4
2024-04-30T00:53:13.729Z,11.2
2024-04-30T00:54:29.978Z,11.4
2024-04-30T00:55:46.227Z,10.9
2024-04-30T00:57:02.476Z,11.2
2024-04-30T00:58:18.725Z,11.1
2024-04-30T00:59:34.974Z,11.7
2024-04-30T01:00:51.224Z,10.7
2024-04-30T01:02:07.473Z,11.5
2024-04-30T01:03:23.722Z,13.4
2024-04-30T01:04:39.971Z,10.4
2024-04-30T01:05:55.236Z,12.3
2024-04-30T01:07:11.484Z,11.4
2024-04-30T01:08:27.734Z,10
2024-04-30T01:09:43.983Z,12.8
2024-04-30T01:11:00.232Z,13.1
2024-04-30T01:12:16.481Z,10.9
2024-04-30T01:13:32.730Z,13
2024-04-30T01:14:48.979Z,13
2024-04-30T01:16:05.228Z,10.8
2024-04-30T01:17:21.477Z,13.2
2024-04-30T01:18:37.726Z,13.5
2024-04-30T01:19:53.975Z,11
2024-04-30T01:21:10.223Z,13
2024-04-30T01:22:25.488Z,10.1
2024-04-30T01:23:41.737Z,11.2
2024-04-30T01:24:57.986Z,11.9
2024-04-30T01:26:14.235Z,11.1
2024-04-30T01:27:30.484Z,10.4
2024-04-30T01:28:46.733Z,13.3
2024-04-30T01:30:02.982Z,13.4
2024-04-30T01:31:19.231Z,11.7
2024-04-30T01:32:35.480Z,11.6
2024-04-30T01:33:51.729Z,13.4
2024-04-30T01:35:07.978Z,12.5
2024-04-30T01:36:24.228Z,11.9
2024-04-30T01:37:40.476Z,11.1
2024-04-30T01:38:55.741Z,12
2024-04-30T01:40:11.990Z,13.3
2024-04-30T01:41:28.239Z,11.3
2024-04-30T01:42:44.488Z,10.8
2024-04-30T01:44:00.737Z,11
2024-04-30T01:45:16.987Z,12.8
2024-04-30T01:46:33.236Z,13.1
2024-04-30T01:47:49.485Z,12.9
2024-04-30T01:49:05.734Z,10.4
2024-04-30T01:50:21.983Z,11
2024-04-30T01:51:38.232Z,11.3
2024-04-30T01:52:54.481Z,11.4
2024-04-30T01:54:10.730Z,11.8
2024-04-30T01:55:25.995Z,11.8
2024-04-30T01:56:42.244Z,11.4
2024-04-30T01:57:58.493Z,10.6
2024-04-30T01:59:14.742Z,11.7
2024-04-30T02:00:30.991Z,12.1
2024-04-30T02:01:47.240Z,10.2
2024-04-30T02:03:03.488Z,12.7
2024-04-30T02:04:19.737Z,12.4
2024-04-30T02:05:35.986Z,10.6
2024-04-30T02:06:52.235Z,12.5
2024-04-30T02:08:08.484Z,11.7
2024-04-30T02:09:24.733Z,11
2024-04-30T02:10:40.982Z,12.4
2024-04-30T02:11:56.247Z,12.1
2024-04-30T02:13:12.495Z,10.8
2024-04-30T02:14:28.744Z,11.9
2024-04-30T02:15:44.993Z,12.8
2024-04-30T02:17:01.242Z,10.1
2024-04-30T02:18:17.491Z,12.6
2024-04-30T02:19:33.740Z,11.9
2024-04-30T02:20:49.989Z,13.3
2024-04-30T02:22:06.238Z,10.8
2024-04-30T02:23:22.487Z,12.7
2024-04-30T02:24:38.736Z,12.4
2024-04-30T02:25:54.984Z,10.6
2024-04-30T02:27:11.233Z,10.5
2024-04-30T02:28:26.498Z,13.9
2024-04-30T02:29:42.747Z,12.4
2024-04-30T02:30:58.996Z,12.6
2024-04-30T02:32:15.245Z,11.5
2024-04-30T02:33:31.494Z,11.4
2024-04-30T02:34:47.743Z,12
2024-04-30T02:36:03.992Z,12.4
2024-04-30T02:37:20.240Z,11.3
2024-04-30T02:38:36.489Z,11.9
2024-04-30T02:39:52.738Z,11.9
2024-04-30T02:41:08.987Z,12.9
2024-04-30T02:42:25.236Z,12.5
2024-04-30T02:43:41.485Z,13.6
2024-04-30T02:44:56.750Z,13.3
2024-04-30T02:46:12.998Z,11.1
2024-04-30T02:47:29.247Z,12
2024-04-30T02:48:45.496Z,11.9
2024-04-30T02:50:01.745Z,12.6
2024-04-30T02:51:17.994Z,12
2024-04-30T02:52:34.243Z,12.6
2024-04-30T02:53:50.491Z,12.4
2024-04-30T02:55:06.740Z,13.6
2024-04-30T02:56:22.989Z,10.6
2024-04-30T02:57:39.238Z,12.4
2024-04-30T02:58:55.487Z,12.7
2024-04-30T03:00:11.736Z,10.4
2024-04-30T03:01:27.002Z,13.2
2024-04-30T03:02:43.251Z,13.4
2024-04-30T03:03:59.500Z,11.2
2024-04-30T03:05:15.749Z,12.8
2024-04-30T03:06:31.998Z,12.7
2024-04-30T03:07:48.247Z,11.2
2024-04-30T03:09:04.496Z,12.8
2024-04-30T03:10:20.745Z,10.7
2024-04-30T03:11:36.994Z,11.2
2024-04-30T03:12:53.243Z,11.9
2024-04-30T03:14:09.492Z,12.2
2024-04-30T03:15:25.741Z,10.4
2024-04-30T03:16:41.989Z,12.8
2024-04-30T03:17:57.254Z,12.7
2024-04-30T03:19:13.503Z,10.9
2024-04-30T03:20:29.752Z,11.6
2024-04-30T03:21:46.001Z,11.8
2024-04-30T03:23:02.250Z,13.3
2024-04-30T03:24:18.499Z,11.8
2024-04-30T03:25:34.748Z,12.4
2024-04-30T03:26:50.997Z,13.9
2024-04-30T03:28:07.246Z,13.3
2024-04-30T03:29:23.496Z,12.1
2024-04-30T03:30:39.745Z,12.6
2024-04-30T03:31:55.994Z,13.5
2024-04-30T03:33:12.243Z,12.9
2024-04-30T03:34:27.508Z,12.8
2024-04-30T03:35:43.758Z,11.8
2024-04-30T03:37:00.007Z,11.7
2024-04-30T03:38:16.256Z,12.9
2024-04-30T03:39:32.505Z,12.9
2024-04-30T03:40:48.754Z,13.6
2024-04-30T03:42:05.003Z,13.5
2024-04-30T03:43:21.252Z,11.6
2024-04-30T03:44:37.501Z,12
2024-04-30T03:45:53.751Z,12.1
2024-04-30T03:47:10.000Z,13.2
2024-04-30T03:48:26.249Z,13.1
2024-04-30T03:49:42.498Z,13
2024-04-30T03:50:57.763Z,13.5
2024-04-30T03:52:14.012Z,13.1
2024-04-30T03:53:30.261Z,13
2024-04-30T03:54:46.510Z,13
2024-04-30T03:56:02.759Z,13.1
2024-04-30T03:57:19.008Z,12.8
2024-04-30T03:58:34.278Z,13.5
2024-04-30T03:59:50.527Z,13.5
2024-04-30T04:01:06.776Z,13.6
2024-04-30T04:02:23.025Z,13.3
2024-04-30T04:03:39.273Z,12.9
2024-04-30T04:04:55.522Z,13.9
2024-04-30T04:06:11.771Z,11.7
2024-04-30T04:07:28.020Z,13.5
2024-04-30T04:08:44.269Z,13
2024-04-30T04:10:00.519Z,14
2024-04-30T04:11:16.769Z,13.1
2024-04-30T04:12:33.018Z,15.3
2024-04-30T04:13:49.267Z,13.5
2024-04-30T04:15:04.532Z,13.6
2024-04-30T04:16:20.781Z,12
2024-04-30T04:17:37.030Z,12.9
2024-04-30T04:18:53.279Z,13.2
2024-04-30T04:20:09.528Z,13.6
2024-04-30T04:21:25.777Z,14.4
2024-04-30T04:22:42.026Z,14.6
2024-04-30T04:23:58.276Z,13
2024-04-30T04:25:14.525Z,13.4
2024-04-30T04:26:30.773Z,13.4
2024-04-30T04:27:47.022Z,12.8
2024-04-30T04:29:03.271Z,12
2024-04-30T04:30:19.520Z,14
2024-04-30T04:31:34.785Z,13.2
2024-04-30T04:32:51.034Z,11.8
2024-04-30T04:34:07.284Z,13.1
2024-04-30T04:35:23.533Z,13
2024-04-30T04:36:39.782Z,11.4
2024-04-30T04:37:56.031Z,12.4
2024-04-30T04:39:12.280Z,13.2
2024-04-30T04:40:28.529Z,12.8
2024-04-30T04:41:44.779Z,13.8
2024-04-30T04:43:01.028Z,11.6
2024-04-30T04:44:17.277Z,12.4
2024-04-30T04:45:33.526Z,14.1
2024-04-30T04:46:49.774Z,13.8
2024-04-30T04:48:05.039Z,13.1
2024-04-30T04:49:21.288Z,13
2024-04-30T04:50:37.537Z,13.6
2024-04-30T04:51:53.786Z,15.4
2024-04-30T04:53:10.036Z,16
2024-04-30T04:54:26.285Z,14.8
2024-04-30T04:55:42.534Z,15.5
2024-04-30T04:56:58.782Z,14.7
2024-04-30T04:58:15.032Z,13.4
2024-04-30T04:59:31.281Z,12.7
2024-04-30T05:00:47.530Z,12.4
2024-04-30T05:02:03.779Z,13.1
2024-04-30T05:03:20.028Z,12.9
2024-04-30T05:04:35.293Z,12.8
2024-04-30T05:05:51.542Z,13.5
2024-04-30T05:07:07.791Z,13.7
2024-04-30T05:08:24.039Z,12.7
2024-04-30T05:09:40.287Z,13.2
2024-04-30T05:10:56.537Z,13.4
2024-04-30T05:12:12.786Z,12.6
2024-04-30T05:13:29.034Z,13.2
2024-04-30T05:14:45.283Z,13
2024-04-30T05:16:01.532Z,15.5
2024-04-30T05:17:17.781Z,13.1
2024-04-30T05:18:34.030Z,13.8
2024-04-30T05:19:50.279Z,13.4
2024-04-30T05:21:05.543Z,12.9
2024-04-30T05:22:21.792Z,14.4
2024-04-30T05:23:38.041Z,13.9
2024-04-30T05:24:54.290Z,13.5
2024-04-30T05:26:10.539Z,13.7
2024-04-30T05:27:26.788Z,13.9
2024-04-30T05:28:43.036Z,12.6
2024-04-30T05:29:59.285Z,14
2024-04-30T05:31:15.533Z,13.5
2024-04-30T05:32:31.782Z,12.2
2024-04-30T05:33:48.030Z,12.7
2024-04-30T05:35:04.279Z,12.8
2024-04-30T05:36:20.528Z,13.2
2024-04-30T05:37:35.793Z,14.2
2024-04-30T05:38:52.041Z,14
2024-04-30T05:40:08.290Z,13
2024-04-30T05:41:24.539Z,12.4
2024-04-30T05:42:40.787Z,13.4
2024-04-30T05:43:57.036Z,11.7
2024-04-30T05:45:13.284Z,13
2024-04-30T05:46:29.532Z,12.8
2024-04-30T05:47:45.781Z,10.9
2024-04-30T05:49:02.030Z,13.1
2024-04-30T05:50:18.278Z,11.6
2024-04-30T05:51:34.527Z,11.9
2024-04-30T05:52:50.776Z,12.2
2024-04-30T05:54:06.040Z,11
2024-04-30T05:55:22.289Z,10.9
2024-04-30T05:56:38.537Z,11
2024-04-30T05:57:54.785Z,11.1
2024-04-30T05:59:11.034Z,11.3
2024-04-30T06:00:27.283Z,10.9
2024-04-30T06:01:43.531Z,11
2024-04-30T06:02:59.780Z,11.1
2024-04-30T06:04:16.028Z,11.1
2024-04-30T06:05:32.277Z,10.7
2024-04-30T06:06:48.526Z,11.2
2024-04-30T06:08:04.774Z,10.7
2024-04-30T06:09:21.023Z,10.8
2024-04-30T06:10:36.287Z,10.9
2024-04-30T06:11:52.535Z,10.7
2024-04-30T06:13:08.783Z,11.4
2024-04-30T06:14:25.032Z,11.2
2024-04-30T06:15:41.280Z,11.4
2024-04-30T06:16:57.529Z,11
2024-04-30T06:18:13.777Z,10.9
2024-04-30T06:19:30.026Z,11.2
2024-04-30T06:20:46.275Z,11.1
2024-04-30T06:22:02.523Z,10.6
2024-04-30T06:23:18.772Z,10.2
2024-04-30T06:24:35.020Z,11.5
2024-04-30T06:25:51.269Z,11.5
2024-04-30T06:27:06.533Z,11.7
2024-04-30T06:28:22.782Z,11.7
2024-04-30T06:29:39.030Z,11.5
2024-04-30T06:30:55.279Z,11.3
2024-04-30T06:32:11.528Z,11.4
2024-04-30T06:33:27.777Z,11.2
2024-04-30T06:34:44.025Z,10.7
2024-04-30T06:36:00.273Z,10.7
2024-04-30T06:37:16.521Z,10.7
2024-04-30T06:38:32.769Z,12.5
2024-04-30T06:39:49.018Z,10.6
2024-04-30T06:41:05.267Z,10.1
2024-04-30T06:42:21.516Z,10.8
2024-04-30T06:43:36.781Z,10.8
2024-04-30T06:44:53.030Z,10.3
2024-04-30T06:46:09.279Z,10.8
2024-04-30T06:47:25.527Z,11.6
2024-04-30T06:48:41.776Z,10.9
2024-04-30T06:49:58.025Z,10.6
2024-04-30T06:51:14.273Z,10.5
2024-04-30T06:52:30.522Z,10.3
2024-04-30T06:53:46.771Z,12.5
2024-04-30T06:55:03.019Z,11.6
2024-04-30T06:56:19.268Z,10.1
2024-04-30T06:57:35.517Z,10.3
2024-04-30T06:58:51.766Z,11.6
2024-04-30T07:00:07.030Z,10.3
2024-04-30T07:01:23.279Z,9.9
2024-04-30T07:02:39.528Z,9.9
2024-04-30T07:03:55.776Z,9.9
2024-04-30T07:05:12.025Z,10.6
2024-04-30T07:06:28.274Z,11.2
2024-04-30T07:07:44.522Z,10.8
2024-04-30T07:09:00.771Z,10.6
2024-04-30T07:10:17.019Z,11.8
2024-04-30T07:11:33.268Z,10
2024-04-30T07:12:49.517Z,11.6
2024-04-30T07:14:05.765Z,10.2
2024-04-30T07:15:22.014Z,9.9
2024-04-30T07:16:37.279Z,10.9
2024-04-30T07:17:53.528Z,9.4
2024-04-30T07:19:09.776Z,9.9
2024-04-30T07:20:26.025Z,10.2
2024-04-30T07:21:42.273Z,9.2
2024-04-30T07:22:58.522Z,9.5
2024-04-30T07:24:14.770Z,11.2
2024-04-30T07:25:31.019Z,11
2024-04-30T07:26:47.268Z,10.5
2024-04-30T07:28:03.516Z,10.4
2024-04-30T07:29:19.765Z,9.8
2024-04-30T07:30:36.014Z,11.1
2024-04-30T07:31:52.262Z,10.7
2024-04-30T07:33:07.527Z,9.1
2024-04-30T07:34:23.776Z,11.1
2024-04-30T07:35:40.025Z,11.1
2024-04-30T07:36:56.274Z,12.8
2024-04-30T07:38:12.523Z,11.1
2024-04-30T07:39:28.772Z,11.4
2024-04-30T07:40:45.020Z,9.4
2024-04-30T07:42:01.268Z,10.1
2024-04-30T07:43:17.517Z,10.2
2024-04-30T07:44:33.765Z,10.3
2024-04-30T07:45:50.014Z,10
2024-04-30T07:47:06.262Z,11.1
2024-04-30T07:48:22.511Z,12
2024-04-30T07:49:37.776Z,11.4
2024-04-30T07:50:54.025Z,9.2
2024-04-30T07:52:10.273Z,10.3
2024-04-30T07:53:26.522Z,10.9
2024-04-30T07:54:42.771Z,9.1
2024-04-30T07:55:59.020Z,10.3
2024-04-30T07:57:15.269Z,8.9
2024-04-30T07:58:31.517Z,8.9
2024-04-30T07:59:47.768Z,10.1
2024-04-30T08:01:04.017Z,9.4
2024-04-30T08:02:20.266Z,9.5
2024-04-30T08:03:36.515Z,8.6
2024-04-30T08:04:52.764Z,9.8
2024-04-30T08:06:08.029Z,8
2024-04-30T08:07:24.278Z,8
2024-04-30T08:08:40.527Z,9.8
2024-04-30T08:09:56.776Z,9
2024-04-30T08:11:13.026Z,8.4
2024-04-30T08:12:29.275Z,8.2
2024-04-30T08:13:44.545Z,10
2024-04-30T08:16:17.043Z,9.4
2024-04-30T08:17:33.292Z,9.2
2024-04-30T08:18:49.541Z,8.3
2024-04-30T08:20:05.790Z,10.1
2024-04-30T08:21:22.040Z,9.2
2024-04-30T08:22:38.289Z,9.4
2024-04-30T08:23:54.539Z,8.3
2024-04-30T08:25:10.788Z,9.5
2024-04-30T08:26:27.038Z,8.4
2024-04-30T08:27:43.288Z,9.8
2024-04-30T08:28:59.537Z,8.5
2024-04-30T08:30:14.803Z,9.9
2024-04-30T08:31:31.052Z,8.3
2024-04-30T08:32:47.301Z,9.5
2024-04-30T08:34:03.551Z,9.3
2024-04-30T08:35:19.800Z,8.1
2024-04-30T08:36:36.050Z,8.6
2024-04-30T08:37:52.299Z,8.8
2024-04-30T08:39:08.548Z,8.4
2024-04-30T08:40:24.798Z,8.7
2024-04-30T08:41:41.048Z,9.1
2024-04-30T08:42:57.297Z,8.2
2024-04-30T08:44:13.547Z,9.2
2024-04-30T08:45:29.797Z,8.7
2024-04-30T08:46:45.063Z,8.1
2024-04-30T08:48:01.313Z,8.5
2024-04-30T08:49:17.563Z,9.8
2024-04-30T08:50:33.812Z,9.9
2024-04-30T08:51:50.062Z,7.7
2024-04-30T08:53:06.312Z,7.3
2024-04-30T08:54:22.561Z,8.6
2024-04-30T08:55:38.811Z,8.4
2024-04-30T08:56:55.062Z,8.2
2024-04-30T08:58:11.312Z,7.3
2024-04-30T08:59:27.561Z,7.9
2024-04-30T09:00:43.811Z,9
2024-04-30T09:02:00.060Z,8.8
2024-04-30T09:03:15.326Z,9.1
2024-04-30T09:04:31.576Z,8.5
2024-04-30T09:05:47.826Z,8.2
2024-04-30T09:07:04.076Z,8.2
2024-04-30T09:08:20.325Z,8.7
2024-04-30T09:09:36.575Z,9.1
2024-04-30T09:10:52.825Z,9
2024-04-30T09:12:09.074Z,8.9
2024-04-30T09:13:25.324Z,8.1
2024-04-30T09:14:41.573Z,8.6
2024-04-30T09:15:57.823Z,11.1
2024-04-30T09:17:14.073Z,9
2024-04-30T09:18:30.323Z,9.5
2024-04-30T09:19:45.589Z,8.6
2024-04-30T09:21:01.838Z,9.8
2024-04-30T09:22:18.088Z,9.6
2024-04-30T09:23:34.338Z,9.8
2024-04-30T09:24:50.588Z,9.3
2024-04-30T09:26:06.837Z,8.3
2024-04-30T09:27:23.087Z,8.8
2024-04-30T09:28:39.337Z,7.9
2024-04-30T09:29:55.587Z,9.3
2024-04-30T09:31:11.837Z,8
2024-04-30T09:32:28.087Z,9.4
2024-04-30T09:33:44.337Z,8.6
2024-04-30T09:35:00.587Z,8.5
2024-04-30T09:36:15.853Z,8.6
2024-04-30T09:37:32.103Z,9.2
2024-04-30T09:38:48.353Z,10.2
2024-04-30T09:40:04.603Z,8.1
2024-04-30T09:41:20.854Z,8.6
2024-04-30T09:42:37.104Z,8
2024-04-30T09:43:53.354Z,8.9
2024-04-30T09:45:09.604Z,9.7
2024-04-30T09:46:25.854Z,10
2024-04-30T09:47:42.105Z,6.9
2024-04-30T09:48:58.355Z,8.9
2024-04-30T09:50:14.605Z,8.3
2024-04-30T09:51:30.856Z,9.4
2024-04-30T09:52:46.122Z,9.7
2024-04-30T09:54:02.372Z,8
2024-04-30T09:55:18.623Z,7.3
2024-04-30T09:56:34.873Z,9.9
2024-04-30T09:57:51.123Z,8.5
2024-04-30T09:59:07.373Z,7.6
2024-04-30T10:00:23.623Z,8.3
2024-04-30T10:01:39.874Z,8.9
2024-04-30T10:02:56.124Z,8.4
2024-04-30T10:04:12.374Z,9.1
2024-04-30T10:05:28.624Z,8.4
2024-04-30T10:06:44.874Z,8.5
2024-04-30T10:08:01.124Z,12.8
2024-04-30T10:09:16.391Z,14.8
2024-04-30T10:10:32.641Z,13.3
2024-04-30T10:11:48.891Z,13.2
2024-04-30T10:13:05.142Z,10.7
2024-04-30T10:14:21.392Z,17.4
2024-04-30T10:15:37.642Z,12.5
2024-04-30T10:16:53.892Z,16.6
2024-04-30T10:18:10.142Z,12.6
2024-04-30T10:19:26.392Z,9.6
2024-04-30T10:20:42.642Z,9.1
2024-04-30T10:21:58.892Z,12.5
2024-04-30T10:23:15.143Z,14
2024-04-30T10:24:31.393Z,13.1
2024-04-30T10:25:46.659Z,12.8
2024-04-30T10:27:02.910Z,10.1
2024-04-30T10:28:19.160Z,12.1
2024-04-30T10:29:35.410Z,8.9
2024-04-30T10:30:51.660Z,9
2024-04-30T10:32:07.910Z,9.3
2024-04-30T10:33:24.160Z,9.1
2024-04-30T10:34:40.410Z,10
2024-04-30T10:35:56.659Z,8.6
2024-04-30T10:37:12.910Z,10.9
2024-04-30T10:38:29.160Z,11.7
2024-04-30T10:39:45.409Z,7.8
2024-04-30T10:41:01.658Z,9.5
2024-04-30T10:42:16.924Z,9.6
2024-04-30T10:43:33.173Z,8.7
2024-04-30T10:44:49.422Z,9.8
2024-04-30T10:46:05.672Z,10.2
2024-04-30T10:47:21.921Z,8.8
2024-04-30T10:48:38.170Z,7.9
2024-04-30T10:49:54.419Z,7.8
2024-04-30T10:51:10.668Z,9.9
2024-04-30T10:52:26.917Z,10.5
2024-04-30T10:53:43.166Z,10.4
2024-04-30T10:54:59.415Z,9.3
2024-04-30T10:56:15.664Z,10.1
2024-04-30T10:57:31.913Z,11.3
2024-04-30T10:58:47.178Z,10.2
2024-04-30T11:00:03.427Z,9.2
2024-04-30T11:01:19.675Z,10.3
2024-04-30T11:02:35.924Z,13.4
2024-04-30T11:03:52.173Z,11.7
2024-04-30T11:05:08.422Z,12.9
2024-04-30T11:06:24.672Z,14.6
2024-04-30T11:07:40.921Z,10.7
2024-04-30T11:08:57.169Z,8
2024-04-30T11:10:13.418Z,8.1
2024-04-30T11:11:29.667Z,9.2
2024-04-30T11:12:45.915Z,10
2024-04-30T11:14:02.164Z,11.1
2024-04-30T11:15:17.428Z,8.8
2024-04-30T11:16:33.677Z,14.6
2024-04-30T11:17:49.926Z,16.6
2024-04-30T11:19:06.175Z,17.3
2024-04-30T11:20:22.423Z,9.4
2024-04-30T11:21:38.672Z,9.7
2024-04-30T11:22:54.921Z,8.3
2024-04-30T11:24:11.169Z,9.6
2024-04-30T11:25:27.418Z,9.3
2024-04-30T11:26:43.667Z,10.3
2024-04-30T11:27:59.915Z,8.7
2024-04-30T11:29:16.164Z,13.8
2024-04-30T11:30:32.413Z,10.4
2024-04-30T11:31:47.677Z,9.9
2024-04-30T11:33:03.926Z,9
2024-04-30T11:34:20.175Z,9.8
2024-04-30T11:35:36.423Z,8.7
2024-04-30T11:36:52.672Z,9.9
2024-04-30T11:38:08.920Z,9
2024-04-30T11:39:25.169Z,9.4
2024-04-30T11:40:41.417Z,10.2
2024-04-30T11:41:57.666Z,10.1
2024-04-30T11:43:13.915Z,8.2
2024-04-30T11:44:30.163Z,10.2
2024-04-30T11:45:46.412Z,8.7
2024-04-30T11:47:02.661Z,8.7
2024-04-30T11:48:17.925Z,10.1
2024-04-30T11:49:34.174Z,9.4
2024-04-30T11:50:50.422Z,8.5
2024-04-30T11:52:06.671Z,10.1
2024-04-30T11:53:22.920Z,10.3
2024-04-30T11:54:39.168Z,19.4
2024-04-30T11:55:55.417Z,15.5
2024-04-30T11:57:11.666Z,9.4
2024-04-30T11:58:27.914Z,8.4
2024-04-30T11:59:44.163Z,8.8
2024-04-30T12:01:00.411Z,8.8
2024-04-30T12:02:16.660Z,9
2024-04-30T12:03:32.909Z,8.2
2024-04-30T12:04:48.174Z,8.1
2024-04-30T12:06:04.422Z,10.1
2024-04-30T12:07:20.672Z,9.9
2024-04-30T12:08:36.921Z,8.7
2024-04-30T12:09:53.169Z,11.3
2024-04-30T12:11:09.418Z,11.1
2024-04-30T12:12:25.666Z,12
2024-04-30T12:13:41.915Z,9.5
2024-04-30T12:14:58.164Z,9.1
2024-04-30T12:16:14.412Z,11.5
2024-04-30T12:17:30.661Z,13.5
2024-04-30T12:18:46.910Z,8
2024-04-30T12:20:03.158Z,10
2024-04-30T12:21:18.423Z,8.5
2024-04-30T12:22:34.672Z,8.9
2024-04-30T12:23:50.920Z,11.3
2024-04-30T12:25:07.169Z,10.4
2024-04-30T12:26:23.418Z,19.6
2024-04-30T12:27:39.666Z,14
2024-04-30T12:28:54.936Z,11.8
2024-04-30T12:30:11.185Z,10.9
2024-04-30T12:31:27.433Z,12.8
2024-04-30T12:32:43.682Z,9.5
2024-04-30T12:33:59.931Z,9.6
2024-04-30T12:35:16.179Z,11.2
2024-04-30T12:36:32.428Z,8.9
2024-04-30T12:37:48.677Z,11.4
2024-04-30T12:39:04.926Z,9.9
2024-04-30T12:40:21.174Z,14.4
2024-04-30T12:41:37.423Z,10.9
2024-04-30T12:42:53.671Z,9.7
2024-04-30T12:44:09.920Z,12.2
2024-04-30T12:45:25.185Z,10.3
2024-04-30T12:46:41.433Z,9.4
2024-04-30T12:47:57.682Z,9
2024-04-30T12:49:13.931Z,11
2024-04-30T12:50:30.179Z,12.1
2024-04-30T12:51:46.428Z,10
2024-04-30T12:53:02.677Z,10.8
2024-04-30T12:54:18.925Z,10.2
2024-04-30T12:55:35.174Z,9.2
2024-04-30T12:56:51.423Z,10.4
2024-04-30T12:58:07.672Z,10.1
2024-04-30T12:59:23.921Z,10
2024-04-30T13:00:40.169Z,10
2024-04-30T13:01:55.434Z,11.1
2024-04-30T13:03:11.684Z,9.5
2024-04-30T13:04:27.933Z,9.1
2024-04-30T13:05:44.181Z,12
2024-04-30T13:07:00.430Z,9.7
2024-04-30T13:08:16.679Z,9.9
2024-04-30T13:09:32.928Z,10.3
2024-04-30T13:10:49.177Z,12
2024-04-30T13:12:05.425Z,11.6
2024-04-30T13:13:21.675Z,9.8
2024-04-30T13:14:37.924Z,9.7
2024-04-30T13:15:54.172Z,10.4
2024-04-30T13:17:10.421Z,10.5
2024-04-30T13:18:25.686Z,10.4
2024-04-30T13:19:41.934Z,11.2
2024-04-30T13:20:58.183Z,9.9
2024-04-30T13:22:14.432Z,12
2024-04-30T13:23:30.681Z,10.9
2024-04-30T13:24:46.930Z,12.3
2024-04-30T13:26:03.179Z,11.5
2024-04-30T13:27:19.428Z,11.8
2024-04-30T13:28:35.676Z,12.3
2024-04-30T13:29:51.925Z,13.7
2024-04-30T13:31:08.174Z,10.4
2024-04-30T13:32:24.423Z,10.5
2024-04-30T13:33:40.671Z,9.3
2024-04-30T13:34:55.936Z,11
2024-04-30T13:36:12.185Z,13.2
2024-04-30T13:37:28.434Z,9.6
2024-04-30T13:38:44.682Z,9.8
2024-04-30T13:40:00.931Z,10.5
2024-04-30T13:41:17.180Z,11.7
2024-04-30T13:42:33.429Z,9.5
2024-04-30T13:43:49.677Z,12.9
2024-04-30T13:45:05.926Z,15.1
2024-04-30T13:46:22.175Z,11.3
2024-04-30T13:47:38.423Z,9.6
2024-04-30T13:48:54.672Z,9.8
2024-04-30T13:50:10.921Z,12.4
2024-04-30T13:51:26.185Z,11
2024-04-30T13:52:42.434Z,11.4
2024-04-30T13:53:58.683Z,10.4
2024-04-30T13:55:14.931Z,9.8
2024-04-30T13:56:31.180Z,10.7
2024-04-30T13:57:47.429Z,11.8
2024-04-30T13:59:03.678Z,11.1
2024-04-30T14:00:19.927Z,10.3
2024-04-30T14:01:36.175Z,11.3
2024-04-30T14:02:52.424Z,10.1
2024-04-30T14:04:08.673Z,11.4
2024-04-30T14:05:24.922Z,11.6
2024-04-30T14:06:41.170Z,11.3
2024-04-30T14:07:56.435Z,10.8
2024-04-30T14:09:12.683Z,11.8
2024-04-30T14:10:28.933Z,12.3
2024-04-30T14:11:45.182Z,10.7
2024-04-30T14:13:01.430Z,10
2024-04-30T14:14:17.679Z,10.5
2024-04-30T14:15:33.928Z,13.2
2024-04-30T14:16:50.176Z,11
2024-04-30T14:18:06.425Z,10.6
2024-04-30T14:19:22.673Z,11.1
2024-04-30T14:20:38.922Z,9.6
2024-04-30T14:21:55.170Z,11.5
2024-04-30T14:23:11.419Z,10.2
2024-04-30T14:24:26.684Z,11.2
2024-04-30T14:25:42.932Z,11.4
2024-04-30T14:26:59.181Z,9.6
2024-04-30T14:28:15.430Z,10.8
2024-04-30T14:29:31.678Z,11.4
2024-04-30T14:30:47.927Z,10.7
2024-04-30T14:32:04.175Z,11.6
2024-04-30T14:33:20.424Z,11.5
2024-04-30T14:34:36.672Z,10.3
2024-04-30T14:35:52.921Z,11.6
2024-04-30T14:37:09.170Z,9.9
2024-04-30T14:38:25.418Z,11
2024-04-30T14:39:41.667Z,11.5
2024-04-30T14:40:56.932Z,10.5
2024-04-30T14:42:13.180Z,11.4
2024-04-30T14:43:29.429Z,11.1
2024-04-30T14:44:45.677Z,12.7
2024-04-30T14:46:01.926Z,11.4
2024-04-30T14:47:18.174Z,10.9
2024-04-30T14:48:34.423Z,10.2
2024-04-30T14:49:50.671Z,11.1
2024-04-30T14:51:06.919Z,10.4
2024-04-30T14:52:23.168Z,11.5
2024-04-30T14:53:39.416Z,10.6
2024-04-30T14:54:55.664Z,10.8
2024-04-30T14:56:11.913Z,10.4
2024-04-30T14:57:27.177Z,11.8
2024-04-30T14:58:43.425Z,10.9
2024-04-30T14:59:59.674Z,11.6
2024-04-30T15:01:15.923Z,11.1
2024-04-30T15:02:32.171Z,11.3
2024-04-30T15:03:48.419Z,12.1
2024-04-30T15:05:04.667Z,11.2
2024-04-30T15:06:20.915Z,10
2024-04-30T15:07:37.163Z,11.4
2024-04-30T15:08:53.413Z,10.3
2024-04-30T15:10:09.662Z,11
2024-04-30T15:11:25.910Z,9.5
2024-04-30T15:12:42.158Z,10.6
2024-04-30T15:13:57.422Z,10.8
2024-04-30T15:15:13.671Z,10.2
2024-04-30T15:16:29.919Z,11.2
2024-04-30T15:17:46.167Z,11.8
2024-04-30T15:19:02.415Z,12.9
2024-04-30T15:20:18.664Z,11.2
2024-04-30T15:21:34.912Z,10.1
2024-04-30T15:22:51.161Z,12.1
2024-04-30T15:24:07.409Z,10.9
2024-04-30T15:25:23.657Z,12.8
2024-04-30T15:26:39.906Z,9.3
2024-04-30T15:27:56.154Z,9.7
2024-04-30T15:29:12.403Z,8.8
2024-04-30T15:30:27.668Z,8.9
2024-04-30T15:31:43.916Z,9.9
2024-04-30T15:33:00.165Z,10.8
2024-04-30T15:34:16.413Z,9.7
2024-04-30T15:35:32.662Z,9.9
2024-04-30T15:36:48.911Z,9.6
2024-04-30T15:38:05.159Z,11
2024-04-30T15:39:21.408Z,9.6
2024-04-30T15:40:37.657Z,10.2
2024-04-30T15:41:53.906Z,10.2
2024-04-30T15:43:10.155Z,10.1
2024-04-30T15:44:26.403Z,11.2
2024-04-30T15:45:42.652Z,10
2024-04-30T15:46:57.917Z,10.4
2024-04-30T15:48:14.166Z,11.2
2024-04-30T15:49:30.415Z,10.2
2024-04-30T15:50:46.664Z,10.3
2024-04-30T15:52:02.913Z,11.1
2024-04-30T15:53:19.163Z,11.2
2024-04-30T15:54:35.413Z,11.3
2024-04-30T15:55:51.662Z,10
2024-04-30T15:57:07.910Z,10.7
2024-04-30T15:58:24.159Z,11.4
2024-04-30T15:59:40.408Z,10.5
2024-04-30T16:00:56.656Z,9.6
2024-04-30T16:02:12.905Z,12
2024-04-30T16:03:28.170Z,10.4
2024-04-30T16:04:44.418Z,13.4
2024-04-30T16:06:00.667Z,11.5
2024-04-30T16:07:16.916Z,9.8
2024-04-30T16:08:33.165Z,10.6
2024-04-30T16:09:49.413Z,9.2
2024-04-30T16:11:05.662Z,11.7
2024-04-30T16:12:21.910Z,10.9
2024-04-30T16:13:38.159Z,11
2024-04-30T16:14:54.407Z,10.8
2024-04-30T16:16:10.656Z,11.5
2024-04-30T16:17:26.904Z,9.8
2024-04-30T16:18:43.153Z,10.7
2024-04-30T16:19:58.417Z,10.6
2024-04-30T16:21:14.666Z,11.4
2024-04-30T16:22:30.914Z,10.8
2024-04-30T16:23:47.163Z,9.7
2024-04-30T16:25:03.411Z,11.4
2024-04-30T16:26:19.660Z,10.6
2024-04-30T16:27:35.909Z,9.5
2024-04-30T16:28:52.157Z,10.6
2024-04-30T16:30:08.406Z,10.2
2024-04-30T16:31:24.654Z,12.5
2024-04-30T16:32:40.902Z,11
2024-04-30T16:33:57.151Z,11.7
2024-04-30T16:35:13.399Z,10.7
2024-04-30T16:36:28.664Z,10.4
2024-04-30T16:37:44.912Z,11.6
2024-04-30T16:39:01.161Z,11.3
2024-04-30T16:40:17.410Z,12
2024-04-30T16:41:33.658Z,11.3
2024-04-30T16:42:49.907Z,10.2
2024-04-30T16:44:05.176Z,11.2
2024-04-30T16:45:21.425Z,11.5
2024-04-30T16:46:37.673Z,9.9
2024-04-30T16:47:53.921Z,11.7
2024-04-30T16:49:10.170Z,10.2
2024-04-30T16:50:26.419Z,10.4
2024-04-30T16:51:42.667Z,11.2
2024-04-30T16:52:58.916Z,11.5
2024-04-30T16:54:15.164Z,11.5
2024-04-30T16:55:31.412Z,10.4
2024-04-30T16:56:47.661Z,11.3
2024-04-30T16:58:03.909Z,11.3
2024-04-30T16:59:20.158Z,12.2
2024-04-30T17:00:35.422Z,11.5
2024-04-30T17:01:51.671Z,11.2
2024-04-30T17:03:07.920Z,10.4
2024-04-30T17:04:24.168Z,11.2
2024-04-30T17:05:40.416Z,13.5
2024-04-30T17:06:56.665Z,9.9
2024-04-30T17:08:12.913Z,12.3
2024-04-30T17:09:29.162Z,12.2
2024-04-30T17:10:45.410Z,12.5
2024-04-30T17:12:01.659Z,11.7